sensor_id;sensor_type;location;lat;lon;timestamp;P1;durP1;ratioP1;P2;durP2;ratioP2
68106;SDS011;54892;47.488;19.026;2022-10-28T00:01:41;29.60;;;14.02;;
68106;SDS011;54892;47.488;19.026;2022-10-28T00:04:44;24.77;;;13.80;;
68106;SDS011;54892;47.488;19.026;2022-10-28T00:07:49;28.80;;;14.52;;
68106;SDS011;54892;47.488;19.026;2022-10-28T00:10:59;22.23;;;13.68;;
68106;SDS011;54892;47.488;19.026;2022-10-28T00:14:04;24.40;;;13.60;;
68106;SDS011;54892;47.488;19.026;2022-10-28T00:17:08;29.77;;;14.13;;
68106;SDS011;54892;47.488;19.026;2022-10-28T00:20:12;25.50;;;12.95;;
68106;SDS011;54892;47.488;19.026;2022-10-28T00:23:18;22.20;;;13.15;;
68106;SDS011;54892;47.488;19.026;2022-10-28T00:26:22;23.63;;;13.40;;
68106;SDS011;54892;47.488;19.026;2022-10-28T00:32:30;24.42;;;13.60;;
68106;SDS011;54892;47.488;19.026;2022-10-28T00:35:34;22.23;;;13.43;;
68106;SDS011;54892;47.488;19.026;2022-10-28T00:38:39;25.65;;;13.98;;
68106;SDS011;54892;47.488;19.026;2022-10-28T00:41:44;23.90;;;13.13;;
68106;SDS011;54892;47.488;19.026;2022-10-28T00:44:51;23.20;;;12.20;;
68106;SDS011;54892;47.488;19.026;2022-10-28T00:47:57;21.15;;;12.90;;
68106;SDS011;54892;47.488;19.026;2022-10-28T00:51:02;27.40;;;13.38;;
68106;SDS011;54892;47.488;19.026;2022-10-28T00:54:07;25.37;;;13.10;;
68106;SDS011;54892;47.488;19.026;2022-10-28T00:57:12;22.50;;;12.35;;
68106;SDS011;54892;47.488;19.026;2022-10-28T01:00:18;23.58;;;12.50;;
68106;SDS011;54892;47.488;19.026;2022-10-28T01:03:22;22.08;;;12.20;;
68106;SDS011;54892;47.488;19.026;2022-10-28T01:06:25;27.23;;;12.75;;
68106;SDS011;54892;47.488;19.026;2022-10-28T01:09:32;26.50;;;13.45;;
68106;SDS011;54892;47.488;19.026;2022-10-28T01:12:37;27.83;;;13.10;;
68106;SDS011;54892;47.488;19.026;2022-10-28T01:15:50;23.80;;;12.80;;
68106;SDS011;54892;47.488;19.026;2022-10-28T01:19:05;26.23;;;13.00;;
68106;SDS011;54892;47.488;19.026;2022-10-28T01:22:44;26.35;;;13.20;;
68106;SDS011;54892;47.488;19.026;2022-10-28T01:29:39;30.25;;;13.62;;
68106;SDS011;54892;47.488;19.026;2022-10-28T01:33:07;28.15;;;14.02;;
68106;SDS011;54892;47.488;19.026;2022-10-28T01:36:16;25.08;;;13.20;;
68106;SDS011;54892;47.488;19.026;2022-10-28T01:39:30;26.00;;;13.15;;
68106;SDS011;54892;47.488;19.026;2022-10-28T01:42:37;28.45;;;13.82;;
68106;SDS011;54892;47.488;19.026;2022-10-28T01:45:48;25.33;;;13.60;;
68106;SDS011;54892;47.488;19.026;2022-10-28T01:48:58;24.95;;;13.48;;
68106;SDS011;54892;47.488;19.026;2022-10-28T01:52:08;28.60;;;13.60;;
68106;SDS011;54892;47.488;19.026;2022-10-28T01:55:16;24.00;;;13.45;;
68106;SDS011;54892;47.488;19.026;2022-10-28T01:58:25;27.77;;;13.05;;
68106;SDS011;54892;47.488;19.026;2022-10-28T02:01:31;29.50;;;13.45;;
68106;SDS011;54892;47.488;19.026;2022-10-28T02:04:37;29.75;;;13.82;;
68106;SDS011;54892;47.488;19.026;2022-10-28T02:07:40;24.73;;;13.82;;
68106;SDS011;54892;47.488;19.026;2022-10-28T02:10:45;28.95;;;14.15;;
68106;SDS011;54892;47.488;19.026;2022-10-28T02:13:57;26.00;;;14.32;;
68106;SDS011;54892;47.488;19.026;2022-10-28T02:17:17;24.60;;;13.55;;
68106;SDS011;54892;47.488;19.026;2022-10-28T02:20:30;28.73;;;13.20;;
68106;SDS011;54892;47.488;19.026;2022-10-28T02:23:38;27.55;;;14.25;;
68106;SDS011;54892;47.488;19.026;2022-10-28T02:26:46;21.73;;;12.88;;
68106;SDS011;54892;47.488;19.026;2022-10-28T02:29:58;25.73;;;14.02;;
68106;SDS011;54892;47.488;19.026;2022-10-28T02:33:05;26.05;;;13.32;;
68106;SDS011;54892;47.488;19.026;2022-10-28T02:36:15;23.02;;;13.40;;
68106;SDS011;54892;47.488;19.026;2022-10-28T02:39:23;32.25;;;15.10;;
68106;SDS011;54892;47.488;19.026;2022-10-28T02:42:31;28.05;;;14.00;;
68106;SDS011;54892;47.488;19.026;2022-10-28T02:45:36;27.02;;;13.48;;
68106;SDS011;54892;47.488;19.026;2022-10-28T02:48:43;22.87;;;13.15;;
68106;SDS011;54892;47.488;19.026;2022-10-28T02:51:51;24.27;;;13.43;;
68106;SDS011;54892;47.488;19.026;2022-10-28T02:54:58;23.67;;;13.55;;
68106;SDS011;54892;47.488;19.026;2022-10-28T02:58:05;25.05;;;13.18;;
68106;SDS011;54892;47.488;19.026;2022-10-28T03:01:09;27.52;;;14.43;;
68106;SDS011;54892;47.488;19.026;2022-10-28T03:04:13;28.02;;;14.82;;
68106;SDS011;54892;47.488;19.026;2022-10-28T03:07:17;27.80;;;14.02;;
68106;SDS011;54892;47.488;19.026;2022-10-28T03:10:21;26.73;;;13.60;;
68106;SDS011;54892;47.488;19.026;2022-10-28T03:13:25;29.55;;;14.32;;
68106;SDS011;54892;47.488;19.026;2022-10-28T03:16:27;28.60;;;14.00;;
68106;SDS011;54892;47.488;19.026;2022-10-28T03:19:31;22.98;;;13.38;;
68106;SDS011;54892;47.488;19.026;2022-10-28T03:22:35;26.95;;;12.73;;
68106;SDS011;54892;47.488;19.026;2022-10-28T03:25:39;25.83;;;13.70;;
68106;SDS011;54892;47.488;19.026;2022-10-28T03:28:43;27.58;;;13.93;;
68106;SDS011;54892;47.488;19.026;2022-10-28T03:31:46;27.30;;;13.73;;
68106;SDS011;54892;47.488;19.026;2022-10-28T03:34:50;26.42;;;13.75;;
68106;SDS011;54892;47.488;19.026;2022-10-28T03:37:55;28.05;;;14.18;;
68106;SDS011;54892;47.488;19.026;2022-10-28T03:40:59;24.87;;;14.13;;
68106;SDS011;54892;47.488;19.026;2022-10-28T03:44:02;36.72;;;16.45;;
68106;SDS011;54892;47.488;19.026;2022-10-28T03:47:06;22.60;;;13.13;;
68106;SDS011;54892;47.488;19.026;2022-10-28T03:50:09;27.77;;;14.20;;
68106;SDS011;54892;47.488;19.026;2022-10-28T03:53:14;25.42;;;14.07;;
68106;SDS011;54892;47.488;19.026;2022-10-28T03:56:18;28.20;;;14.38;;
68106;SDS011;54892;47.488;19.026;2022-10-28T03:59:22;26.90;;;15.10;;
68106;SDS011;54892;47.488;19.026;2022-10-28T04:02:25;24.15;;;13.57;;
68106;SDS011;54892;47.488;19.026;2022-10-28T04:05:29;25.00;;;13.43;;
68106;SDS011;54892;47.488;19.026;2022-10-28T04:08:33;32.17;;;13.90;;
68106;SDS011;54892;47.488;19.026;2022-10-28T04:11:37;24.77;;;14.50;;
68106;SDS011;54892;47.488;19.026;2022-10-28T04:14:41;28.65;;;14.60;;
68106;SDS011;54892;47.488;19.026;2022-10-28T04:17:44;29.55;;;14.68;;
68106;SDS011;54892;47.488;19.026;2022-10-28T04:20:48;25.02;;;15.18;;
68106;SDS011;54892;47.488;19.026;2022-10-28T04:23:53;28.70;;;13.95;;
68106;SDS011;54892;47.488;19.026;2022-10-28T04:26:56;29.90;;;15.27;;
68106;SDS011;54892;47.488;19.026;2022-10-28T04:29:59;29.17;;;15.52;;
68106;SDS011;54892;47.488;19.026;2022-10-28T04:33:02;30.17;;;15.43;;
68106;SDS011;54892;47.488;19.026;2022-10-28T04:36:06;29.45;;;15.60;;
68106;SDS011;54892;47.488;19.026;2022-10-28T04:39:11;30.98;;;16.05;;
68106;SDS011;54892;47.488;19.026;2022-10-28T04:42:15;28.95;;;15.27;;
68106;SDS011;54892;47.488;19.026;2022-10-28T04:45:19;30.62;;;16.05;;
68106;SDS011;54892;47.488;19.026;2022-10-28T04:48:23;33.10;;;16.40;;
68106;SDS011;54892;47.488;19.026;2022-10-28T04:51:26;30.75;;;16.33;;
68106;SDS011;54892;47.488;19.026;2022-10-28T04:54:31;34.03;;;17.30;;
68106;SDS011;54892;47.488;19.026;2022-10-28T04:57:34;36.83;;;16.43;;
68106;SDS011;54892;47.488;19.026;2022-10-28T05:00:38;36.67;;;16.85;;
68106;SDS011;54892;47.488;19.026;2022-10-28T05:03:41;32.83;;;16.37;;
68106;SDS011;54892;47.488;19.026;2022-10-28T05:06:45;34.80;;;17.37;;
68106;SDS011;54892;47.488;19.026;2022-10-28T05:09:49;40.22;;;17.00;;
68106;SDS011;54892;47.488;19.026;2022-10-28T05:12:53;42.13;;;17.62;;
68106;SDS011;54892;47.488;19.026;2022-10-28T05:15:56;38.33;;;16.87;;
68106;SDS011;54892;47.488;19.026;2022-10-28T05:19:00;44.45;;;18.05;;
68106;SDS011;54892;47.488;19.026;2022-10-28T05:22:03;40.40;;;18.15;;
68106;SDS011;54892;47.488;19.026;2022-10-28T05:25:08;47.78;;;18.30;;
68106;SDS011;54892;47.488;19.026;2022-10-28T05:28:12;44.40;;;18.87;;
68106;SDS011;54892;47.488;19.026;2022-10-28T05:31:15;46.67;;;17.77;;
68106;SDS011;54892;47.488;19.026;2022-10-28T05:34:19;42.97;;;17.55;;
68106;SDS011;54892;47.488;19.026;2022-10-28T05:37:22;43.55;;;16.62;;
68106;SDS011;54892;47.488;19.026;2022-10-28T05:40:27;39.10;;;15.73;;
68106;SDS011;54892;47.488;19.026;2022-10-28T05:43:30;41.92;;;16.48;;
68106;SDS011;54892;47.488;19.026;2022-10-28T05:46:34;46.30;;;16.45;;
68106;SDS011;54892;47.488;19.026;2022-10-28T05:49:37;36.17;;;15.55;;
68106;SDS011;54892;47.488;19.026;2022-10-28T05:52:43;40.80;;;16.45;;
68106;SDS011;54892;47.488;19.026;2022-10-28T05:55:49;35.42;;;15.38;;
68106;SDS011;54892;47.488;19.026;2022-10-28T05:58:52;40.40;;;15.45;;
68106;SDS011;54892;47.488;19.026;2022-10-28T06:01:55;45.55;;;14.48;;
68106;SDS011;54892;47.488;19.026;2022-10-28T06:04:59;40.03;;;14.93;;
68106;SDS011;54892;47.488;19.026;2022-10-28T06:08:03;41.37;;;14.93;;
68106;SDS011;54892;47.488;19.026;2022-10-28T06:11:08;40.90;;;14.85;;
68106;SDS011;54892;47.488;19.026;2022-10-28T06:14:11;37.20;;;14.63;;
68106;SDS011;54892;47.488;19.026;2022-10-28T06:17:14;40.03;;;14.15;;
68106;SDS011;54892;47.488;19.026;2022-10-28T06:20:18;32.03;;;12.80;;
68106;SDS011;54892;47.488;19.026;2022-10-28T06:23:22;33.22;;;13.70;;
68106;SDS011;54892;47.488;19.026;2022-10-28T06:26:28;38.05;;;13.68;;
68106;SDS011;54892;47.488;19.026;2022-10-28T06:29:31;33.97;;;13.60;;
68106;SDS011;54892;47.488;19.026;2022-10-28T06:32:35;38.25;;;13.45;;
68106;SDS011;54892;47.488;19.026;2022-10-28T06:35:38;40.05;;;13.18;;
68106;SDS011;54892;47.488;19.026;2022-10-28T06:38:41;32.47;;;12.48;;
68106;SDS011;54892;47.488;19.026;2022-10-28T06:41:46;34.25;;;13.13;;
68106;SDS011;54892;47.488;19.026;2022-10-28T06:44:50;33.00;;;12.35;;
68106;SDS011;54892;47.488;19.026;2022-10-28T06:47:55;31.20;;;12.02;;
68106;SDS011;54892;47.488;19.026;2022-10-28T06:50:58;31.52;;;12.52;;
68106;SDS011;54892;47.488;19.026;2022-10-28T06:54:02;31.45;;;12.73;;
68106;SDS011;54892;47.488;19.026;2022-10-28T06:57:07;31.92;;;12.93;;
68106;SDS011;54892;47.488;19.026;2022-10-28T07:00:11;31.93;;;12.53;;
68106;SDS011;54892;47.488;19.026;2022-10-28T07:03:16;30.35;;;12.63;;
68106;SDS011;54892;47.488;19.026;2022-10-28T07:06:20;34.67;;;12.85;;
68106;SDS011;54892;47.488;19.026;2022-10-28T07:09:23;27.52;;;11.73;;
68106;SDS011;54892;47.488;19.026;2022-10-28T07:12:27;31.62;;;12.57;;
68106;SDS011;54892;47.488;19.026;2022-10-28T07:15:31;29.85;;;11.73;;
68106;SDS011;54892;47.488;19.026;2022-10-28T07:18:34;28.45;;;11.57;;
68106;SDS011;54892;47.488;19.026;2022-10-28T07:21:37;26.70;;;11.23;;
68106;SDS011;54892;47.488;19.026;2022-10-28T07:24:41;28.27;;;11.80;;
68106;SDS011;54892;47.488;19.026;2022-10-28T07:27:45;28.08;;;11.63;;
68106;SDS011;54892;47.488;19.026;2022-10-28T07:30:49;31.77;;;12.73;;
68106;SDS011;54892;47.488;19.026;2022-10-28T07:33:55;36.97;;;12.68;;
68106;SDS011;54892;47.488;19.026;2022-10-28T07:36:59;32.47;;;12.02;;
68106;SDS011;54892;47.488;19.026;2022-10-28T07:40:02;29.73;;;11.52;;
68106;SDS011;54892;47.488;19.026;2022-10-28T07:43:08;34.23;;;12.37;;
68106;SDS011;54892;47.488;19.026;2022-10-28T07:46:12;36.00;;;12.45;;
68106;SDS011;54892;47.488;19.026;2022-10-28T07:49:16;29.10;;;11.98;;
68106;SDS011;54892;47.488;19.026;2022-10-28T07:52:19;34.25;;;12.55;;
68106;SDS011;54892;47.488;19.026;2022-10-28T07:55:23;35.10;;;11.90;;
68106;SDS011;54892;47.488;19.026;2022-10-28T07:58:28;38.78;;;12.95;;
68106;SDS011;54892;47.488;19.026;2022-10-28T08:01:31;35.88;;;13.05;;
68106;SDS011;54892;47.488;19.026;2022-10-28T08:04:35;30.23;;;11.23;;
68106;SDS011;54892;47.488;19.026;2022-10-28T08:07:38;32.38;;;11.80;;
68106;SDS011;54892;47.488;19.026;2022-10-28T08:10:42;38.20;;;12.30;;
68106;SDS011;54892;47.488;19.026;2022-10-28T08:13:46;34.42;;;12.40;;
68106;SDS011;54892;47.488;19.026;2022-10-28T08:16:50;30.83;;;11.95;;
68106;SDS011;54892;47.488;19.026;2022-10-28T08:19:54;34.85;;;12.35;;
68106;SDS011;54892;47.488;19.026;2022-10-28T08:22:57;32.85;;;12.95;;
68106;SDS011;54892;47.488;19.026;2022-10-28T08:26:02;27.37;;;11.20;;
68106;SDS011;54892;47.488;19.026;2022-10-28T08:29:07;31.92;;;11.02;;
68106;SDS011;54892;47.488;19.026;2022-10-28T08:32:12;27.33;;;11.35;;
68106;SDS011;54892;47.488;19.026;2022-10-28T08:35:16;21.02;;;10.90;;
68106;SDS011;54892;47.488;19.026;2022-10-28T08:38:20;28.70;;;10.80;;
68106;SDS011;54892;47.488;19.026;2022-10-28T08:41:27;20.50;;;10.65;;
68106;SDS011;54892;47.488;19.026;2022-10-28T08:44:43;22.70;;;10.57;;
68106;SDS011;54892;47.488;19.026;2022-10-28T08:48:01;21.85;;;9.98;;
68106;SDS011;54892;47.488;19.026;2022-10-28T08:51:13;24.55;;;11.50;;
68106;SDS011;54892;47.488;19.026;2022-10-28T08:54:20;24.42;;;10.82;;
68106;SDS011;54892;47.488;19.026;2022-10-28T08:57:31;24.58;;;10.55;;
68106;SDS011;54892;47.488;19.026;2022-10-28T09:00:49;25.23;;;10.95;;
68106;SDS011;54892;47.488;19.026;2022-10-28T09:03:54;28.45;;;10.98;;
68106;SDS011;54892;47.488;19.026;2022-10-28T09:06:59;26.30;;;11.60;;
68106;SDS011;54892;47.488;19.026;2022-10-28T09:10:04;25.52;;;10.98;;
68106;SDS011;54892;47.488;19.026;2022-10-28T09:13:10;23.85;;;10.95;;
68106;SDS011;54892;47.488;19.026;2022-10-28T09:16:26;31.25;;;11.93;;
68106;SDS011;54892;47.488;19.026;2022-10-28T09:19:44;29.37;;;11.00;;
68106;SDS011;54892;47.488;19.026;2022-10-28T09:22:53;27.20;;;11.43;;
68106;SDS011;54892;47.488;19.026;2022-10-28T09:26:02;24.65;;;11.23;;
68106;SDS011;54892;47.488;19.026;2022-10-28T09:29:16;28.55;;;11.12;;
68106;SDS011;54892;47.488;19.026;2022-10-28T09:32:34;24.42;;;11.43;;
68106;SDS011;54892;47.488;19.026;2022-10-28T09:35:44;26.95;;;10.98;;
68106;SDS011;54892;47.488;19.026;2022-10-28T09:38:50;25.52;;;11.00;;
68106;SDS011;54892;47.488;19.026;2022-10-28T09:41:57;25.25;;;11.23;;
68106;SDS011;54892;47.488;19.026;2022-10-28T09:45:03;24.83;;;10.75;;
68106;SDS011;54892;47.488;19.026;2022-10-28T09:48:10;22.80;;;10.52;;
68106;SDS011;54892;47.488;19.026;2022-10-28T09:51:26;24.77;;;10.90;;
68106;SDS011;54892;47.488;19.026;2022-10-28T09:54:33;21.30;;;10.18;;
68106;SDS011;54892;47.488;19.026;2022-10-28T09:57:39;23.77;;;10.10;;
68106;SDS011;54892;47.488;19.026;2022-10-28T10:00:45;22.98;;;10.35;;
68106;SDS011;54892;47.488;19.026;2022-10-28T10:03:50;26.85;;;10.43;;
68106;SDS011;54892;47.488;19.026;2022-10-28T10:06:55;21.35;;;10.52;;
68106;SDS011;54892;47.488;19.026;2022-10-28T10:10:03;25.60;;;10.65;;
68106;SDS011;54892;47.488;19.026;2022-10-28T10:13:12;24.10;;;10.18;;
68106;SDS011;54892;47.488;19.026;2022-10-28T10:16:20;23.02;;;10.98;;
68106;SDS011;54892;47.488;19.026;2022-10-28T10:19:30;21.58;;;11.23;;
68106;SDS011;54892;47.488;19.026;2022-10-28T10:23:00;21.85;;;10.70;;
68106;SDS011;54892;47.488;19.026;2022-10-28T10:26:22;21.65;;;10.57;;
68106;SDS011;54892;47.488;19.026;2022-10-28T10:29:26;19.95;;;10.98;;
68106;SDS011;54892;47.488;19.026;2022-10-28T10:32:31;23.33;;;10.97;;
68106;SDS011;54892;47.488;19.026;2022-10-28T10:35:36;19.83;;;10.75;;
68106;SDS011;54892;47.488;19.026;2022-10-28T10:38:45;21.42;;;10.77;;
68106;SDS011;54892;47.488;19.026;2022-10-28T10:41:50;20.10;;;10.77;;
68106;SDS011;54892;47.488;19.026;2022-10-28T10:44:58;22.15;;;10.32;;
68106;SDS011;54892;47.488;19.026;2022-10-28T10:48:05;20.20;;;10.13;;
68106;SDS011;54892;47.488;19.026;2022-10-28T10:51:16;19.30;;;10.90;;
68106;SDS011;54892;47.488;19.026;2022-10-28T10:54:24;23.00;;;11.18;;
68106;SDS011;54892;47.488;19.026;2022-10-28T10:57:29;19.53;;;10.07;;
68106;SDS011;54892;47.488;19.026;2022-10-28T11:00:34;21.08;;;10.70;;
68106;SDS011;54892;47.488;19.026;2022-10-28T11:03:45;21.00;;;11.38;;
68106;SDS011;54892;47.488;19.026;2022-10-28T11:06:52;20.85;;;10.63;;
68106;SDS011;54892;47.488;19.026;2022-10-28T11:09:58;21.80;;;11.82;;
68106;SDS011;54892;47.488;19.026;2022-10-28T11:13:03;22.85;;;12.07;;
68106;SDS011;54892;47.488;19.026;2022-10-28T11:16:16;25.12;;;12.02;;
68106;SDS011;54892;47.488;19.026;2022-10-28T11:19:22;22.85;;;12.05;;
68106;SDS011;54892;47.488;19.026;2022-10-28T11:22:30;25.03;;;11.13;;
68106;SDS011;54892;47.488;19.026;2022-10-28T11:25:44;21.40;;;11.20;;
68106;SDS011;54892;47.488;19.026;2022-10-28T11:28:57;17.15;;;9.73;;
68106;SDS011;54892;47.488;19.026;2022-10-28T11:32:11;18.98;;;10.32;;
68106;SDS011;54892;47.488;19.026;2022-10-28T11:35:33;19.27;;;10.07;;
68106;SDS011;54892;47.488;19.026;2022-10-28T11:42:19;18.42;;;10.00;;
68106;SDS011;54892;47.488;19.026;2022-10-28T11:45:33;18.42;;;9.85;;
68106;SDS011;54892;47.488;19.026;2022-10-28T11:48:48;21.37;;;9.38;;
68106;SDS011;54892;47.488;19.026;2022-10-28T11:52:04;18.85;;;11.32;;
68106;SDS011;54892;47.488;19.026;2022-10-28T11:55:24;19.90;;;10.70;;
68106;SDS011;54892;47.488;19.026;2022-10-28T11:58:37;19.90;;;10.57;;
68106;SDS011;54892;47.488;19.026;2022-10-28T12:01:47;17.92;;;10.40;;
68106;SDS011;54892;47.488;19.026;2022-10-28T12:05:00;20.70;;;10.40;;
68106;SDS011;54892;47.488;19.026;2022-10-28T12:08:14;17.67;;;9.95;;
68106;SDS011;54892;47.488;19.026;2022-10-28T12:11:37;23.58;;;10.75;;
68106;SDS011;54892;47.488;19.026;2022-10-28T12:14:51;18.67;;;9.98;;
68106;SDS011;54892;47.488;19.026;2022-10-28T12:18:03;19.23;;;9.95;;
68106;SDS011;54892;47.488;19.026;2022-10-28T12:21:16;20.42;;;10.73;;
68106;SDS011;54892;47.488;19.026;2022-10-28T12:24:27;24.05;;;11.73;;
68106;SDS011;54892;47.488;19.026;2022-10-28T12:27:35;21.00;;;10.20;;
68106;SDS011;54892;47.488;19.026;2022-10-28T12:30:43;18.35;;;9.98;;
68106;SDS011;54892;47.488;19.026;2022-10-28T12:33:50;16.67;;;9.15;;
68106;SDS011;54892;47.488;19.026;2022-10-28T12:36:57;17.83;;;10.15;;
68106;SDS011;54892;47.488;19.026;2022-10-28T12:40:06;19.65;;;10.20;;
68106;SDS011;54892;47.488;19.026;2022-10-28T12:43:18;17.77;;;10.32;;
68106;SDS011;54892;47.488;19.026;2022-10-28T12:46:28;22.00;;;10.23;;
68106;SDS011;54892;47.488;19.026;2022-10-28T12:49:43;23.73;;;10.77;;
68106;SDS011;54892;47.488;19.026;2022-10-28T12:52:53;22.42;;;11.00;;
68106;SDS011;54892;47.488;19.026;2022-10-28T12:56:01;22.58;;;11.07;;
68106;SDS011;54892;47.488;19.026;2022-10-28T12:59:08;18.85;;;10.98;;
68106;SDS011;54892;47.488;19.026;2022-10-28T13:02:15;17.77;;;10.30;;
68106;SDS011;54892;47.488;19.026;2022-10-28T13:05:23;21.42;;;10.93;;
68106;SDS011;54892;47.488;19.026;2022-10-28T13:08:41;19.90;;;11.35;;
68106;SDS011;54892;47.488;19.026;2022-10-28T13:12:21;20.12;;;10.68;;
68106;SDS011;54892;47.488;19.026;2022-10-28T13:15:40;19.12;;;10.80;;
68106;SDS011;54892;47.488;19.026;2022-10-28T13:19:02;20.23;;;10.57;;
68106;SDS011;54892;47.488;19.026;2022-10-28T13:22:23;21.87;;;10.70;;
68106;SDS011;54892;47.488;19.026;2022-10-28T13:25:38;19.08;;;9.90;;
68106;SDS011;54892;47.488;19.026;2022-10-28T13:28:52;18.12;;;10.02;;
68106;SDS011;54892;47.488;19.026;2022-10-28T13:32:00;18.33;;;10.10;;
68106;SDS011;54892;47.488;19.026;2022-10-28T13:35:09;21.45;;;10.57;;
68106;SDS011;54892;47.488;19.026;2022-10-28T13:38:18;21.75;;;11.68;;
68106;SDS011;54892;47.488;19.026;2022-10-28T13:41:26;28.30;;;10.88;;
68106;SDS011;54892;47.488;19.026;2022-10-28T13:44:34;22.58;;;12.00;;
68106;SDS011;54892;47.488;19.026;2022-10-28T13:47:50;23.10;;;12.23;;
68106;SDS011;54892;47.488;19.026;2022-10-28T13:51:08;23.62;;;11.90;;
68106;SDS011;54892;47.488;19.026;2022-10-28T13:54:31;20.95;;;10.73;;
68106;SDS011;54892;47.488;19.026;2022-10-28T13:57:57;21.25;;;11.43;;
68106;SDS011;54892;47.488;19.026;2022-10-28T14:04:55;22.83;;;10.82;;
68106;SDS011;54892;47.488;19.026;2022-10-28T14:08:00;22.52;;;11.15;;
68106;SDS011;54892;47.488;19.026;2022-10-28T14:11:07;22.67;;;10.98;;
68106;SDS011;54892;47.488;19.026;2022-10-28T14:14:13;22.40;;;11.88;;
68106;SDS011;54892;47.488;19.026;2022-10-28T14:20:27;23.33;;;11.43;;
68106;SDS011;54892;47.488;19.026;2022-10-28T14:24:03;24.08;;;11.68;;
68106;SDS011;54892;47.488;19.026;2022-10-28T14:27:19;25.93;;;11.77;;
68106;SDS011;54892;47.488;19.026;2022-10-28T14:30:28;21.50;;;11.40;;
68106;SDS011;54892;47.488;19.026;2022-10-28T14:33:31;25.98;;;12.30;;
68106;SDS011;54892;47.488;19.026;2022-10-28T14:36:37;27.60;;;12.07;;
68106;SDS011;54892;47.488;19.026;2022-10-28T14:39:55;22.87;;;11.20;;
68106;SDS011;54892;47.488;19.026;2022-10-28T14:46:59;25.23;;;11.52;;
68106;SDS011;54892;47.488;19.026;2022-10-28T14:50:14;25.70;;;11.95;;
68106;SDS011;54892;47.488;19.026;2022-10-28T14:53:22;27.30;;;12.75;;
68106;SDS011;54892;47.488;19.026;2022-10-28T14:56:29;27.33;;;11.90;;
68106;SDS011;54892;47.488;19.026;2022-10-28T14:59:35;26.48;;;12.07;;
68106;SDS011;54892;47.488;19.026;2022-10-28T15:02:40;27.67;;;13.20;;
68106;SDS011;54892;47.488;19.026;2022-10-28T15:05:44;30.60;;;13.32;;
68106;SDS011;54892;47.488;19.026;2022-10-28T15:08:49;28.90;;;13.02;;
68106;SDS011;54892;47.488;19.026;2022-10-28T15:11:53;28.17;;;13.32;;
68106;SDS011;54892;47.488;19.026;2022-10-28T15:15:00;35.22;;;13.25;;
68106;SDS011;54892;47.488;19.026;2022-10-28T15:18:16;28.23;;;13.35;;
68106;SDS011;54892;47.488;19.026;2022-10-28T15:21:23;29.98;;;13.70;;
68106;SDS011;54892;47.488;19.026;2022-10-28T15:24:27;26.77;;;13.25;;
68106;SDS011;54892;47.488;19.026;2022-10-28T15:27:31;29.00;;;13.15;;
68106;SDS011;54892;47.488;19.026;2022-10-28T15:30:36;21.70;;;10.70;;
68106;SDS011;54892;47.488;19.026;2022-10-28T15:33:43;20.98;;;11.07;;
68106;SDS011;54892;47.488;19.026;2022-10-28T15:36:46;22.42;;;11.18;;
68106;SDS011;54892;47.488;19.026;2022-10-28T15:39:55;20.42;;;11.48;;
68106;SDS011;54892;47.488;19.026;2022-10-28T15:43:16;24.23;;;11.90;;
68106;SDS011;54892;47.488;19.026;2022-10-28T15:46:21;25.92;;;12.32;;
68106;SDS011;54892;47.488;19.026;2022-10-28T15:49:29;24.03;;;12.23;;
68106;SDS011;54892;47.488;19.026;2022-10-28T15:52:39;29.05;;;13.52;;
68106;SDS011;54892;47.488;19.026;2022-10-28T15:55:44;25.70;;;11.80;;
68106;SDS011;54892;47.488;19.026;2022-10-28T15:59:05;26.40;;;13.43;;
68106;SDS011;54892;47.488;19.026;2022-10-28T16:05:45;30.45;;;13.65;;
68106;SDS011;54892;47.488;19.026;2022-10-28T16:08:57;30.90;;;13.55;;
68106;SDS011;54892;47.488;19.026;2022-10-28T16:12:15;29.77;;;13.48;;
68106;SDS011;54892;47.488;19.026;2022-10-28T16:15:21;26.87;;;13.32;;
68106;SDS011;54892;47.488;19.026;2022-10-28T16:18:25;26.10;;;12.70;;
68106;SDS011;54892;47.488;19.026;2022-10-28T16:21:30;27.13;;;12.43;;
68106;SDS011;54892;47.488;19.026;2022-10-28T16:24:34;24.63;;;12.30;;
68106;SDS011;54892;47.488;19.026;2022-10-28T16:27:39;26.15;;;12.37;;
68106;SDS011;54892;47.488;19.026;2022-10-28T16:30:42;31.27;;;13.20;;
68106;SDS011;54892;47.488;19.026;2022-10-28T16:33:46;26.70;;;12.70;;
68106;SDS011;54892;47.488;19.026;2022-10-28T16:36:50;28.17;;;12.75;;
68106;SDS011;54892;47.488;19.026;2022-10-28T16:39:53;33.13;;;14.70;;
68106;SDS011;54892;47.488;19.026;2022-10-28T16:42:59;30.95;;;13.95;;
68106;SDS011;54892;47.488;19.026;2022-10-28T16:46:03;25.62;;;13.25;;
68106;SDS011;54892;47.488;19.026;2022-10-28T16:49:07;30.52;;;13.45;;
68106;SDS011;54892;47.488;19.026;2022-10-28T16:52:12;27.23;;;13.32;;
68106;SDS011;54892;47.488;19.026;2022-10-28T16:55:17;27.17;;;13.38;;
68106;SDS011;54892;47.488;19.026;2022-10-28T16:58:22;25.75;;;12.43;;
68106;SDS011;54892;47.488;19.026;2022-10-28T17:01:26;28.20;;;12.27;;
68106;SDS011;54892;47.488;19.026;2022-10-28T17:04:29;24.15;;;12.18;;
68106;SDS011;54892;47.488;19.026;2022-10-28T17:07:33;28.70;;;12.70;;
68106;SDS011;54892;47.488;19.026;2022-10-28T17:10:36;27.58;;;12.07;;
68106;SDS011;54892;47.488;19.026;2022-10-28T17:13:42;28.00;;;12.93;;
68106;SDS011;54892;47.488;19.026;2022-10-28T17:16:45;28.57;;;14.17;;
68106;SDS011;54892;47.488;19.026;2022-10-28T17:19:49;27.65;;;14.50;;
68106;SDS011;54892;47.488;19.026;2022-10-28T17:22:52;28.48;;;13.40;;
68106;SDS011;54892;47.488;19.026;2022-10-28T17:25:56;26.10;;;13.00;;
68106;SDS011;54892;47.488;19.026;2022-10-28T17:29:01;25.83;;;13.55;;
68106;SDS011;54892;47.488;19.026;2022-10-28T17:32:05;29.52;;;13.68;;
68106;SDS011;54892;47.488;19.026;2022-10-28T17:35:09;29.43;;;14.03;;
68106;SDS011;54892;47.488;19.026;2022-10-28T17:38:14;28.40;;;14.83;;
68106;SDS011;54892;47.488;19.026;2022-10-28T17:41:18;25.27;;;13.68;;
68106;SDS011;54892;47.488;19.026;2022-10-28T17:44:23;29.63;;;14.45;;
68106;SDS011;54892;47.488;19.026;2022-10-28T17:47:26;25.92;;;13.55;;
68106;SDS011;54892;47.488;19.026;2022-10-28T17:50:29;24.70;;;13.20;;
68106;SDS011;54892;47.488;19.026;2022-10-28T17:53:33;25.05;;;12.82;;
68106;SDS011;54892;47.488;19.026;2022-10-28T17:56:37;25.05;;;13.02;;
68106;SDS011;54892;47.488;19.026;2022-10-28T17:59:44;23.67;;;12.00;;
68106;SDS011;54892;47.488;19.026;2022-10-28T18:02:48;25.42;;;11.77;;
68106;SDS011;54892;47.488;19.026;2022-10-28T18:05:52;28.90;;;13.57;;
68106;SDS011;54892;47.488;19.026;2022-10-28T18:08:55;27.10;;;12.73;;
68106;SDS011;54892;47.488;19.026;2022-10-28T18:12:00;25.85;;;12.52;;
68106;SDS011;54892;47.488;19.026;2022-10-28T18:15:06;23.42;;;12.43;;
68106;SDS011;54892;47.488;19.026;2022-10-28T18:18:11;25.50;;;12.35;;
68106;SDS011;54892;47.488;19.026;2022-10-28T18:21:15;31.50;;;13.75;;
68106;SDS011;54892;47.488;19.026;2022-10-28T18:24:20;32.07;;;14.00;;